Sarajevo, Bosnia and Herzegovina
Current Conditions -  °F | °C
As of 3:00 AM on Tuesday 23 Dec 2014 (Local Time) from LQSA Reporting Station
Haze Haze  
Wind Chill: -3°   Ceiling: Unl
Heat Index: -3°   Visibility: 1.2mi
Dew Point: -3°   Wind: 2mph
Humidity: 100%   Direction: NA
Pressure: 30.33"   Gusts: NA
Location:  43.85°N, 18.38°E
Report Text: LQSA 230100Z VRB02KT 2000 BR NSC M03/M03 Q1027
Loading
Personal Weather Stations






























Interactive Weather Map New forecast layout! Learn more

10-Day Weather Forecast

Advertisements
Track Severe Weather on mobile